Map

Track Data

SID SEASON NUMBER BASIN SUBBASIN NAME ISO_TIME NATURE LAT LON WMO_WIND WMO_PRES WMO_AGENCY TRACK_TYPE DIST2LAND LANDFALL IFLAG USA_AGENCY USA_ATCF_ID USA_LAT USA_LON USA_RECORD USA_STATUS USA_WIND USA_PRES USA_SSHS USA_R34_NE USA_R34_SE USA_R34_SW USA_R34_NW USA_R50_NE USA_R50_SE USA_R50_SW USA_R50_NW USA_R64_NE USA_R64_SE USA_R64_SW USA_R64_NW USA_POCI USA_ROCI USA_RMW USA_EYE TOKYO_LAT TOKYO_LON TOKYO_GRADE TOKYO_WIND TOKYO_PRES TOKYO_R50_DIR TOKYO_R50_LONG TOKYO_R50_SHORT TOKYO_R30_DIR TOKYO_R30_LONG TOKYO_R30_SHORT TOKYO_LAND CMA_LAT CMA_LON CMA_CAT CMA_WIND CMA_PRES HKO_LAT HKO_LON HKO_CAT HKO_WIND HKO_PRES NEWDELHI_LAT NEWDELHI_LON NEWDELHI_GRADE NEWDELHI_WIND NEWDELHI_PRES NEWDELHI_CI NEWDELHI_DP NEWDELHI_POCI REUNION_LAT REUNION_LON REUNION_TYPE REUNION_WIND REUNION_PRES REUNION_TNUM REUNION_CI REUNION_RMW REUNION_R34_NE REUNION_R34_SE REUNION_R34_SW REUNION_R34_NW REUNION_R50_NE REUNION_R50_SE REUNION_R50_SW REUNION_R50_NW REUNION_R64_NE REUNION_R64_SE REUNION_R64_SW REUNION_R64_NW BOM_LAT BOM_LON BOM_TYPE BOM_WIND BOM_PRES BOM_TNUM BOM_CI BOM_RMW BOM_R34_NE BOM_R34_SE BOM_R34_SW BOM_R34_NW BOM_R50_NE BOM_R50_SE BOM_R50_SW BOM_R50_NW BOM_R64_NE BOM_R64_SE BOM_R64_SW BOM_R64_NW BOM_ROCI BOM_POCI BOM_EYE BOM_POS_METHOD BOM_PRES_METHOD NADI_LAT NADI_LON NADI_CAT NADI_WIND NADI_PRES WELLINGTON_LAT WELLINGTON_LON WELLINGTON_WIND WELLINGTON_PRES DS824_LAT DS824_LON DS824_STAGE DS824_WIND DS824_PRES TD9636_LAT TD9636_LON TD9636_STAGE TD9636_WIND TD9636_PRES TD9635_LAT TD9635_LON TD9635_WIND TD9635_PRES TD9635_ROCI NEUMANN_LAT NEUMANN_LON NEUMANN_CLASS NEUMANN_WIND NEUMANN_PRES MLC_LAT MLC_LON MLC_CLASS MLC_WIND MLC_PRES USA_GUST BOM_GUST BOM_GUST_PER REUNION_GUST REUNION_GUST_PER USA_SEAHGT USA_SEARAD_NE USA_SEARAD_SE USA_SEARAD_SW USA_SEARAD_NW STORM_SPEED STORM_DIR
1851241N27280 1851 11 NA NA NOT_NAMED 1851-08-28 12:00:00 TS 27.0000 -80.0000 main 9 9 _____________O -1 27.0000 -80.0000 TS 35 1 20
1851241N27280 1851 11 NA NA NOT_NAMED 1851-08-28 15:00:00 TS 27.0525 -80.0000 main 14 14 _____________P -1 27.0525 -80.0000 TS 35 1 0
1851241N27280 1851 11 NA NA NOT_NAMED 1851-08-28 18:00:00 TS 27.1000 -80.0000 main 14 14 _____________O -1 27.1000 -80.0000 TS 35 1 0
1851241N27280 1851 11 NA NA NOT_NAMED 1851-08-28 21:00:00 TS 27.1425 -80.0000 main 14 14 _____________P -1 27.1425 -80.0000 TS 37 1 0
1851241N27280 1851 11 NA NA NOT_NAMED 1851-08-29 00:00:00 TS 27.2000 -80.0000 main 19 19 _____________O -1 27.2000 -80.0000 TS 40 2 6
1851241N27280 1851 11 NA NA NOT_NAMED 1851-08-29 03:00:00 TS 27.3000 -80.0000 main 22 22 _____________P -1 27.3000 -80.0000 TS 40 2 8
1851241N27280 1851 11 NA NA NOT_NAMED 1851-08-29 06:00:00 TS 27.4000 -80.0000 main 29 29 _____________O -1 27.4000 -80.0000 TS 40 2 0
1851241N27280 1851 11 NA NA NOT_NAMED 1851-08-29 09:00:00 TS 27.4500 -80.0150 main 29 29 _____________P -1 27.4500 -80.0150 TS 40 1 0
1851241N27280 1851 11 NA NA NOT_NAMED 1851-08-29 12:00:00 TS 27.5000 -80.0000 main 31 31 _____________O -1 27.5000 -80.0000 TS 40 1 31
1851241N27280 1851 11 NA NA NOT_NAMED 1851-08-29 15:00:00 TS 27.5624 -79.9373 main 45 45 _____________P -1 27.5624 -79.9373 TS 40 3 42
1851241N27280 1851 11 NA NA NOT_NAMED 1851-08-29 18:00:00 TS 27.7000 -79.8000 main 59 59 _____________O -1 27.7000 -79.8000 TS 40 5 37
1851241N27280 1851 11 NA NA NOT_NAMED 1851-08-29 21:00:00 TS 27.9926 -79.5728 main 89 89 _____________P -1 27.9926 -79.5728 TS 40 7 36
1851241N27280 1851 11 NA NA NOT_NAMED 1851-08-30 00:00:00 TS 28.3000 -79.3000 main 119 119 _____________O -1 28.3000 -79.3000 TS 40 7 45
1851241N27280 1851 11 NA NA NOT_NAMED 1851-08-30 03:00:00 TS 28.4650 -79.0423 main 146 146 _____________P -1 28.4650 -79.0423 TS 40 5 56
1851241N27280 1851 11 NA NA NOT_NAMED 1851-08-30 06:00:00 TS 28.6000 -78.8000 main 166 166 _____________O -1 28.6000 -78.8000 TS 40 5 51
1851241N27280 1851 11 NA NA NOT_NAMED 1851-08-30 09:00:00 TS 28.8000 -78.5776 main 188 188 _____________P -1 28.8000 -78.5776 TS 40 5 41
1851241N27280 1851 11 NA NA NOT_NAMED 1851-08-30 12:00:00 TS 29.0000 -78.4000 main 211 211 _____________O -1 29.0000 -78.4000 TS 40 4 36
1851241N27280 1851 11 NA NA NOT_NAMED 1851-08-30 15:00:00 TS 29.1499 -78.2849 main 224 224 _____________P -1 29.1499 -78.2849 TS 40 3 30
1851241N27280 1851 11 NA NA NOT_NAMED 1851-08-30 18:00:00 TS 29.3000 -78.2000 main 240 240 _____________O -1 29.3000 -78.2000 TS 40 4 25
1851241N27280 1851 11 NA NA NOT_NAMED 1851-08-30 21:00:00 TS 29.4925 -78.1000 main 258 258 _____________P -1 29.4925 -78.1000 TS 40 4 23
1851241N27280 1851 11 NA NA NOT_NAMED 1851-08-31 00:00:00 TS 29.7000 -78.0000 main 277 277 _____________O -1 29.7000 -78.0000 TS 40 4 22
1851241N27280 1851 11 NA NA NOT_NAMED 1851-08-31 03:00:00 TS 29.9000 -77.9074 main 296 296 _____________P -1 29.9000 -77.9074 TS 40 4 23
1851241N27280 1851 11 NA NA NOT_NAMED 1851-08-31 06:00:00 TS 30.1000 -77.8000 main 316 316 _____________O -1 30.1000 -77.8000 TS 40 5 27
1851241N27280 1851 11 NA NA NOT_NAMED 1851-08-31 09:00:00 TS 30.3300 -77.6501 main 336 331 _____________P -1 30.3300 -77.6501 TS 40 5 33
1851241N27280 1851 11 NA NA NOT_NAMED 1851-08-31 12:00:00 TS 30.5000 -77.5000 main 331 331 _____________O -1 30.5000 -77.5000 TS 40 3 49
1851241N27280 1851 11 NA NA NOT_NAMED 1851-08-31 15:00:00 TS 30.5224 -77.3998 main 336 336 _____________P -1 30.5224 -77.3998 TS 40 2 90
1851241N27280 1851 11 NA NA NOT_NAMED 1851-08-31 18:00:00 TS 30.5000 -77.3000 main 342 342 _____________O -1 30.5000 -77.3000 TS 40 2 83
1851241N27280 1851 11 NA NA NOT_NAMED 1851-08-31 21:00:00 TS 30.5500 -77.1501 main 338 338 _____________P -1 30.5500 -77.1501 TS 40 3 69
1851241N27280 1851 11 NA NA NOT_NAMED 1851-09-01 00:00:00 TS 30.6000 -77.0000 main 350 350 _____________O -1 30.6000 -77.0000 TS 40 2 77
1851241N27280 1851 11 NA NA NOT_NAMED 1851-09-01 03:00:00 TS 30.6000 -76.8999 main 356 356 _____________P -1 30.6000 -76.8999 TS 40 2 90
1851241N27280 1851 11 NA NA NOT_NAMED 1851-09-01 06:00:00 TS 30.6000 -76.8000 main 363 363 _____________O -1 30.6000 -76.8000 TS 40 2 79
1851241N27280 1851 11 NA NA NOT_NAMED 1851-09-01 09:00:00 TS 30.6426 -76.6351 main 376 368 _____________P -1 30.6426 -76.6351 TS 40 3 69
1851241N27280 1851 11 NA NA NOT_NAMED 1851-09-01 12:00:00 TS 30.7000 -76.5000 main 374 367 _____________O -1 30.7000 -76.5000 TS 40 2 49
1851241N27280 1851 11 NA NA NOT_NAMED 1851-09-01 15:00:00 TS 30.7575 -76.4775 main 367 367 _____________P -1 30.7575 -76.4775 TS 40 1 0
1851241N27280 1851 11 NA NA NOT_NAMED 1851-09-01 18:00:00 TS 30.8000 -76.5000 main 367 367 _____________O -1 30.8000 -76.5000 TS 40 0 0
1851241N27280 1851 11 NA NA NOT_NAMED 1851-09-01 21:00:00 TS 30.8000 -76.5075 main 367 367 _____________P -1 30.8000 -76.5075 TS 40 0 0
1851241N27280 1851 11 NA NA NOT_NAMED 1851-09-02 00:00:00 TS 30.8000 -76.5000 main 367 367 _____________O -1 30.8000 -76.5000 TS 40 1 52
1851241N27280 1851 11 NA NA NOT_NAMED 1851-09-02 03:00:00 TS 30.8425 -76.4500 main 367 366 _____________P -1 30.8425 -76.4500 TS 40 1 40
1851241N27280 1851 11 NA NA NOT_NAMED 1851-09-02 06:00:00 TS 30.9000 -76.4000 main 366 366 _____________O -1 30.9000 -76.4000 TS 40 1 17
1851241N27280 1851 11 NA NA NOT_NAMED 1851-09-02 09:00:00 TS 30.9350 -76.4000 main 366 356 _____________P -1 30.9350 -76.4000 TS 40 1 0
1851241N27280 1851 11 NA NA NOT_NAMED 1851-09-02 12:00:00 TS 31.0000 -76.4000 main 356 346 _____________O -1 31.0000 -76.4000 TS 40 2 12
1851241N27280 1851 11 NA NA NOT_NAMED 1851-09-02 15:00:00 TS 31.1125 -76.3575 main 346 330 _____________P -1 31.1125 -76.3575 TS 40 3 16
1851241N27280 1851 11 NA NA NOT_NAMED 1851-09-02 18:00:00 TS 31.3000 -76.3000 main 330 301 _____________O -1 31.3000 -76.3000 TS 40 5 11
1851241N27280 1851 11 NA NA NOT_NAMED 1851-09-02 21:00:00 TS 31.5775 -76.2500 main 306 279 _____________P -1 31.5775 -76.2500 TS 40 6 8
1851241N27280 1851 11 NA NA NOT_NAMED 1851-09-03 00:00:00 TS 31.9000 -76.2000 main 279 252 _____________O -1 31.9000 -76.2000 TS 40 6 8
1851241N27280 1851 11 NA NA NOT_NAMED 1851-09-03 03:00:00 TS 32.2075 -76.1500 main 259 235 _____________P -1 32.2075 -76.1500 TS 40 6 8
1851241N27280 1851 11 NA NA NOT_NAMED 1851-09-03 06:00:00 TS 32.5000 -76.1000 main 235 214 _____________O -1 32.5000 -76.1000 TS 40 6 9
1851241N27280 1851 11 NA NA NOT_NAMED 1851-09-03 09:00:00 TS 32.7650 -76.0574 main 214 195 _____________P -1 32.7650 -76.0574 TS 40 5 10
1851241N27280 1851 11 NA NA NOT_NAMED 1851-09-03 12:00:00 TS 33.0000 -76.0000 main 195 176 _____________O -1 33.0000 -76.0000 TS 40 5 15
1851241N27280 1851 11 NA NA NOT_NAMED 1851-09-03 15:00:00 TS 33.2000 -75.9149 main 176 158 _____________P -1 33.2000 -75.9149 TS 40 4 23
1851241N27280 1851 11 NA NA NOT_NAMED 1851-09-03 18:00:00 TS 33.4000 -75.8000 main 158 142 _____________O -1 33.4000 -75.8000 TS 40 5 26
1851241N27280 1851 11 NA NA NOT_NAMED 1851-09-03 21:00:00 TS 33.6350 -75.6649 main 142 127 _____________P -1 33.6350 -75.6649 TS 40 6 27
1851241N27280 1851 11 NA NA NOT_NAMED 1851-09-04 00:00:00 TS 33.9000 -75.5000 main 127 120 _____________O -1 33.9000 -75.5000 TS 40 6 28
1851241N27280 1851 11 NA NA NOT_NAMED 1851-09-04 03:00:00 TS 34.1925 -75.3075 main 120 113 _____________P -1 34.1925 -75.3075 TS 37 7 29
1851241N27280 1851 11 NA NA NOT_NAMED 1851-09-04 06:00:00 TS 34.5000 -75.1000 main 118 114 _____________O -1 34.5000 -75.1000 TS 35 7 29
1851241N27280 1851 11 NA NA NOT_NAMED 1851-09-04 09:00:00 TS 34.8025 -74.8977 main 114 105 _____________P -1 34.8025 -74.8977 TS 35 7 29
1851241N27280 1851 11 NA NA NOT_NAMED 1851-09-04 12:00:00 TS 35.1000 -74.7000 main 106 _____________O -1 35.1000 -74.7000 TS 35 7 29

About IBTrACS Database

This database is a web-friendly format of International Best Track Archive for Climate Stewardship (IBTrACS), a global best track data archive curated by NOAA dating back to 1842.

Updated: 2021-11-26